sensor_id;sensor_type;location;lat;lon;timestamp;P1;durP1;ratioP1;P2;durP2;ratioP2
27744;SDS011;61387;48.112;8.616;2023-08-20T00:00:24;8.50;;;6.70;;
27744;SDS011;61387;48.112;8.616;2023-08-20T00:02:51;11.10;;;7.07;;
27744;SDS011;61387;48.112;8.616;2023-08-20T00:05:23;9.30;;;7.03;;
27744;SDS011;61387;48.112;8.616;2023-08-20T00:07:48;10.70;;;7.73;;
27744;SDS011;61387;48.112;8.616;2023-08-20T00:10:14;10.30;;;7.33;;
27744;SDS011;61387;48.112;8.616;2023-08-20T00:12:40;14.07;;;8.00;;
27744;SDS011;61387;48.112;8.616;2023-08-20T00:15:06;10.63;;;7.35;;
27744;SDS011;61387;48.112;8.616;2023-08-20T00:17:32;10.50;;;7.30;;
27744;SDS011;61387;48.112;8.616;2023-08-20T00:19:59;12.55;;;7.87;;
27744;SDS011;61387;48.112;8.616;2023-08-20T00:22:25;10.70;;;7.53;;
27744;SDS011;61387;48.112;8.616;2023-08-20T00:24:54;10.93;;;7.72;;
27744;SDS011;61387;48.112;8.616;2023-08-20T00:27:21;12.07;;;8.32;;
27744;SDS011;61387;48.112;8.616;2023-08-20T00:29:46;10.10;;;8.20;;
27744;SDS011;61387;48.112;8.616;2023-08-20T00:32:12;11.63;;;7.57;;
27744;SDS011;61387;48.112;8.616;2023-08-20T00:34:38;10.23;;;7.50;;
27744;SDS011;61387;48.112;8.616;2023-08-20T00:37:05;10.43;;;7.10;;
27744;SDS011;61387;48.112;8.616;2023-08-20T00:39:30;12.17;;;8.07;;
27744;SDS011;61387;48.112;8.616;2023-08-20T00:41:56;13.23;;;7.50;;
27744;SDS011;61387;48.112;8.616;2023-08-20T00:44:22;12.20;;;7.67;;
27744;SDS011;61387;48.112;8.616;2023-08-20T00:46:48;14.05;;;7.87;;
27744;SDS011;61387;48.112;8.616;2023-08-20T00:49:15;9.27;;;7.13;;
27744;SDS011;61387;48.112;8.616;2023-08-20T00:51:41;11.05;;;8.35;;
27744;SDS011;61387;48.112;8.616;2023-08-20T00:54:08;11.90;;;7.97;;
27744;SDS011;61387;48.112;8.616;2023-08-20T00:56:34;11.18;;;7.80;;
27744;SDS011;61387;48.112;8.616;2023-08-20T00:59:00;9.85;;;7.50;;
27744;SDS011;61387;48.112;8.616;2023-08-20T01:01:26;12.95;;;8.65;;
27744;SDS011;61387;48.112;8.616;2023-08-20T01:03:52;11.80;;;9.00;;
27744;SDS011;61387;48.112;8.616;2023-08-20T01:11:52;10.02;;;8.48;;
27744;SDS011;61387;48.112;8.616;2023-08-20T01:14:22;12.82;;;8.18;;
27744;SDS011;61387;48.112;8.616;2023-08-20T01:16:48;13.40;;;8.10;;
27744;SDS011;61387;48.112;8.616;2023-08-20T01:19:16;11.95;;;8.48;;
27744;SDS011;61387;48.112;8.616;2023-08-20T01:21:47;12.57;;;7.72;;
27744;SDS011;61387;48.112;8.616;2023-08-20T01:24:46;11.27;;;7.82;;
27744;SDS011;61387;48.112;8.616;2023-08-20T01:27:26;12.05;;;7.95;;
27744;SDS011;61387;48.112;8.616;2023-08-20T01:30:13;12.88;;;7.95;;
27744;SDS011;61387;48.112;8.616;2023-08-20T01:32:40;10.13;;;7.53;;
27744;SDS011;61387;48.112;8.616;2023-08-20T01:35:12;11.77;;;7.47;;
27744;SDS011;61387;48.112;8.616;2023-08-20T01:37:41;11.70;;;7.97;;
27744;SDS011;61387;48.112;8.616;2023-08-20T01:40:07;11.63;;;7.50;;
27744;SDS011;61387;48.112;8.616;2023-08-20T01:42:39;10.95;;;7.70;;
27744;SDS011;61387;48.112;8.616;2023-08-20T01:45:05;11.10;;;7.82;;
27744;SDS011;61387;48.112;8.616;2023-08-20T01:47:32;10.02;;;7.68;;
27744;SDS011;61387;48.112;8.616;2023-08-20T01:49:58;10.27;;;7.93;;
27744;SDS011;61387;48.112;8.616;2023-08-20T01:52:23;11.60;;;8.33;;
27744;SDS011;61387;48.112;8.616;2023-08-20T01:54:49;11.07;;;8.03;;
27744;SDS011;61387;48.112;8.616;2023-08-20T01:57:15;12.03;;;8.03;;
27744;SDS011;61387;48.112;8.616;2023-08-20T01:59:41;10.35;;;7.93;;
27744;SDS011;61387;48.112;8.616;2023-08-20T02:02:07;9.80;;;8.37;;
27744;SDS011;61387;48.112;8.616;2023-08-20T02:04:33;12.97;;;7.73;;
27744;SDS011;61387;48.112;8.616;2023-08-20T02:06:59;13.23;;;8.23;;
27744;SDS011;61387;48.112;8.616;2023-08-20T02:09:25;10.73;;;8.53;;
27744;SDS011;61387;48.112;8.616;2023-08-20T02:11:51;11.33;;;7.83;;
27744;SDS011;61387;48.112;8.616;2023-08-20T02:14:17;12.52;;;8.15;;
27744;SDS011;61387;48.112;8.616;2023-08-20T02:16:43;10.43;;;7.45;;
27744;SDS011;61387;48.112;8.616;2023-08-20T02:19:10;11.00;;;7.32;;
27744;SDS011;61387;48.112;8.616;2023-08-20T02:21:36;9.97;;;7.60;;
27744;SDS011;61387;48.112;8.616;2023-08-20T02:24:02;11.48;;;7.72;;
27744;SDS011;61387;48.112;8.616;2023-08-20T02:26:28;11.20;;;7.80;;
27744;SDS011;61387;48.112;8.616;2023-08-20T02:28:54;10.63;;;7.47;;
27744;SDS011;61387;48.112;8.616;2023-08-20T02:31:20;11.73;;;7.77;;
27744;SDS011;61387;48.112;8.616;2023-08-20T02:33:46;12.20;;;7.73;;
27744;SDS011;61387;48.112;8.616;2023-08-20T02:36:12;12.90;;;7.50;;
27744;SDS011;61387;48.112;8.616;2023-08-20T02:38:37;10.70;;;8.00;;
27744;SDS011;61387;48.112;8.616;2023-08-20T02:41:03;11.55;;;7.93;;
27744;SDS011;61387;48.112;8.616;2023-08-20T02:43:29;11.57;;;7.63;;
27744;SDS011;61387;48.112;8.616;2023-08-20T02:45:55;10.80;;;8.40;;
27744;SDS011;61387;48.112;8.616;2023-08-20T02:48:20;8.75;;;7.37;;
27744;SDS011;61387;48.112;8.616;2023-08-20T02:50:46;11.15;;;7.78;;
27744;SDS011;61387;48.112;8.616;2023-08-20T02:53:12;11.30;;;7.67;;
27744;SDS011;61387;48.112;8.616;2023-08-20T02:55:37;11.10;;;7.53;;
27744;SDS011;61387;48.112;8.616;2023-08-20T02:58:03;9.10;;;7.43;;
27744;SDS011;61387;48.112;8.616;2023-08-20T03:00:32;10.73;;;7.97;;
27744;SDS011;61387;48.112;8.616;2023-08-20T03:02:58;11.05;;;7.50;;
27744;SDS011;61387;48.112;8.616;2023-08-20T03:05:23;9.77;;;7.85;;
27744;SDS011;61387;48.112;8.616;2023-08-20T03:07:49;14.33;;;7.97;;
27744;SDS011;61387;48.112;8.616;2023-08-20T03:10:15;10.83;;;7.83;;
27744;SDS011;61387;48.112;8.616;2023-08-20T03:12:41;10.80;;;7.57;;
27744;SDS011;61387;48.112;8.616;2023-08-20T03:15:06;10.32;;;7.47;;
27744;SDS011;61387;48.112;8.616;2023-08-20T03:17:32;12.03;;;7.63;;
27744;SDS011;61387;48.112;8.616;2023-08-20T03:19:58;10.87;;;7.63;;
27744;SDS011;61387;48.112;8.616;2023-08-20T03:22:25;10.40;;;7.93;;
27744;SDS011;61387;48.112;8.616;2023-08-20T03:24:52;10.90;;;7.60;;
27744;SDS011;61387;48.112;8.616;2023-08-20T03:27:18;9.40;;;7.50;;
27744;SDS011;61387;48.112;8.616;2023-08-20T03:29:44;10.30;;;8.03;;
27744;SDS011;61387;48.112;8.616;2023-08-20T03:32:10;10.77;;;8.83;;
27744;SDS011;61387;48.112;8.616;2023-08-20T03:34:36;11.83;;;8.17;;
27744;SDS011;61387;48.112;8.616;2023-08-20T03:37:04;9.98;;;7.65;;
27744;SDS011;61387;48.112;8.616;2023-08-20T03:39:30;11.93;;;7.70;;
27744;SDS011;61387;48.112;8.616;2023-08-20T03:41:56;12.33;;;7.83;;
27744;SDS011;61387;48.112;8.616;2023-08-20T03:44:22;10.23;;;7.67;;
27744;SDS011;61387;48.112;8.616;2023-08-20T03:46:48;10.77;;;7.97;;
27744;SDS011;61387;48.112;8.616;2023-08-20T03:49:14;8.73;;;7.80;;
27744;SDS011;61387;48.112;8.616;2023-08-20T03:51:40;11.50;;;8.50;;
27744;SDS011;61387;48.112;8.616;2023-08-20T03:54:07;9.83;;;8.10;;
27744;SDS011;61387;48.112;8.616;2023-08-20T03:56:33;10.30;;;8.00;;
27744;SDS011;61387;48.112;8.616;2023-08-20T03:58:59;13.70;;;8.70;;
27744;SDS011;61387;48.112;8.616;2023-08-20T04:01:25;10.33;;;7.70;;
27744;SDS011;61387;48.112;8.616;2023-08-20T04:03:50;12.67;;;8.73;;
27744;SDS011;61387;48.112;8.616;2023-08-20T04:06:16;13.03;;;8.00;;
27744;SDS011;61387;48.112;8.616;2023-08-20T04:08:42;12.87;;;8.60;;
27744;SDS011;61387;48.112;8.616;2023-08-20T04:11:08;11.93;;;7.93;;
27744;SDS011;61387;48.112;8.616;2023-08-20T04:13:34;11.07;;;8.53;;
27744;SDS011;61387;48.112;8.616;2023-08-20T04:16:00;12.10;;;8.03;;
27744;SDS011;61387;48.112;8.616;2023-08-20T04:18:25;10.88;;;8.00;;
27744;SDS011;61387;48.112;8.616;2023-08-20T04:20:52;10.53;;;8.20;;
27744;SDS011;61387;48.112;8.616;2023-08-20T04:23:18;13.63;;;8.10;;
27744;SDS011;61387;48.112;8.616;2023-08-20T04:25:44;9.93;;;7.93;;
27744;SDS011;61387;48.112;8.616;2023-08-20T04:28:12;11.80;;;8.00;;
27744;SDS011;61387;48.112;8.616;2023-08-20T04:30:38;9.27;;;7.53;;
27744;SDS011;61387;48.112;8.616;2023-08-20T04:33:04;13.27;;;8.70;;
27744;SDS011;61387;48.112;8.616;2023-08-20T04:35:30;11.65;;;8.43;;
27744;SDS011;61387;48.112;8.616;2023-08-20T04:37:56;14.95;;;8.63;;
27744;SDS011;61387;48.112;8.616;2023-08-20T04:40:22;12.67;;;8.50;;
27744;SDS011;61387;48.112;8.616;2023-08-20T04:42:48;10.70;;;7.87;;
27744;SDS011;61387;48.112;8.616;2023-08-20T04:45:14;11.60;;;8.33;;
27744;SDS011;61387;48.112;8.616;2023-08-20T04:47:42;10.97;;;7.80;;
27744;SDS011;61387;48.112;8.616;2023-08-20T04:50:08;9.50;;;7.63;;
27744;SDS011;61387;48.112;8.616;2023-08-20T04:52:33;11.40;;;8.23;;
27744;SDS011;61387;48.112;8.616;2023-08-20T04:55:00;11.07;;;8.33;;
27744;SDS011;61387;48.112;8.616;2023-08-20T04:57:26;11.37;;;8.47;;
27744;SDS011;61387;48.112;8.616;2023-08-20T04:59:52;12.63;;;8.33;;
27744;SDS011;61387;48.112;8.616;2023-08-20T05:02:18;9.27;;;7.13;;
27744;SDS011;61387;48.112;8.616;2023-08-20T05:04:44;10.87;;;8.13;;
27744;SDS011;61387;48.112;8.616;2023-08-20T05:07:10;10.20;;;7.50;;
27744;SDS011;61387;48.112;8.616;2023-08-20T05:09:35;11.30;;;7.83;;
27744;SDS011;61387;48.112;8.616;2023-08-20T05:12:01;11.33;;;8.20;;
27744;SDS011;61387;48.112;8.616;2023-08-20T05:14:27;11.37;;;8.20;;
27744;SDS011;61387;48.112;8.616;2023-08-20T05:16:54;10.43;;;8.50;;
27744;SDS011;61387;48.112;8.616;2023-08-20T05:19:19;10.37;;;8.37;;
27744;SDS011;61387;48.112;8.616;2023-08-20T05:21:45;11.67;;;8.63;;
27744;SDS011;61387;48.112;8.616;2023-08-20T05:24:11;12.40;;;9.00;;
27744;SDS011;61387;48.112;8.616;2023-08-20T05:26:37;12.10;;;8.50;;
27744;SDS011;61387;48.112;8.616;2023-08-20T05:29:02;12.17;;;8.80;;
27744;SDS011;61387;48.112;8.616;2023-08-20T05:31:28;10.15;;;7.93;;
27744;SDS011;61387;48.112;8.616;2023-08-20T05:33:54;10.83;;;8.13;;
27744;SDS011;61387;48.112;8.616;2023-08-20T05:36:20;10.60;;;8.80;;
27744;SDS011;61387;48.112;8.616;2023-08-20T05:38:46;11.85;;;9.20;;
27744;SDS011;61387;48.112;8.616;2023-08-20T05:41:12;11.47;;;9.57;;
27744;SDS011;61387;48.112;8.616;2023-08-20T05:43:37;11.43;;;9.20;;
27744;SDS011;61387;48.112;8.616;2023-08-20T05:46:03;12.53;;;8.80;;
27744;SDS011;61387;48.112;8.616;2023-08-20T05:48:29;16.50;;;14.80;;
27744;SDS011;61387;48.112;8.616;2023-08-20T05:50:55;12.37;;;10.67;;
27744;SDS011;61387;48.112;8.616;2023-08-20T05:53:22;10.35;;;8.40;;
27744;SDS011;61387;48.112;8.616;2023-08-20T05:55:47;14.77;;;8.40;;
27744;SDS011;61387;48.112;8.616;2023-08-20T05:58:13;12.60;;;8.67;;
27744;SDS011;61387;48.112;8.616;2023-08-20T06:00:39;11.33;;;8.10;;
27744;SDS011;61387;48.112;8.616;2023-08-20T06:03:05;11.20;;;8.83;;
27744;SDS011;61387;48.112;8.616;2023-08-20T06:05:32;10.68;;;8.50;;
27744;SDS011;61387;48.112;8.616;2023-08-20T06:08:01;10.10;;;8.07;;
27744;SDS011;61387;48.112;8.616;2023-08-20T06:10:26;12.32;;;8.60;;
27744;SDS011;61387;48.112;8.616;2023-08-20T06:12:52;11.30;;;8.27;;
27744;SDS011;61387;48.112;8.616;2023-08-20T06:15:18;11.07;;;8.63;;
27744;SDS011;61387;48.112;8.616;2023-08-20T06:17:44;12.80;;;8.50;;
27744;SDS011;61387;48.112;8.616;2023-08-20T06:20:11;9.73;;;8.18;;
27744;SDS011;61387;48.112;8.616;2023-08-20T06:22:37;12.07;;;9.02;;
27744;SDS011;61387;48.112;8.616;2023-08-20T06:25:04;11.15;;;8.18;;
27744;SDS011;61387;48.112;8.616;2023-08-20T06:27:32;12.07;;;8.63;;
27744;SDS011;61387;48.112;8.616;2023-08-20T06:29:57;11.85;;;8.80;;
27744;SDS011;61387;48.112;8.616;2023-08-20T06:32:23;11.37;;;8.33;;
27744;SDS011;61387;48.112;8.616;2023-08-20T06:34:49;13.05;;;8.88;;
27744;SDS011;61387;48.112;8.616;2023-08-20T06:37:15;12.00;;;9.07;;
27744;SDS011;61387;48.112;8.616;2023-08-20T06:39:40;12.43;;;8.80;;
27744;SDS011;61387;48.112;8.616;2023-08-20T06:42:06;11.17;;;8.60;;
27744;SDS011;61387;48.112;8.616;2023-08-20T06:44:32;12.65;;;9.43;;
27744;SDS011;61387;48.112;8.616;2023-08-20T06:46:58;12.77;;;9.10;;
27744;SDS011;61387;48.112;8.616;2023-08-20T06:49:23;13.03;;;9.27;;
27744;SDS011;61387;48.112;8.616;2023-08-20T06:51:49;10.93;;;8.75;;
27744;SDS011;61387;48.112;8.616;2023-08-20T06:54:15;11.93;;;10.10;;
27744;SDS011;61387;48.112;8.616;2023-08-20T06:56:41;12.43;;;9.37;;
27744;SDS011;61387;48.112;8.616;2023-08-20T06:59:07;12.37;;;10.07;;
27744;SDS011;61387;48.112;8.616;2023-08-20T07:01:32;14.40;;;10.25;;
27744;SDS011;61387;48.112;8.616;2023-08-20T07:03:58;12.50;;;9.53;;
27744;SDS011;61387;48.112;8.616;2023-08-20T07:06:24;12.77;;;10.00;;
27744;SDS011;61387;48.112;8.616;2023-08-20T07:08:50;15.13;;;9.33;;
27744;SDS011;61387;48.112;8.616;2023-08-20T07:11:16;11.60;;;10.27;;
27744;SDS011;61387;48.112;8.616;2023-08-20T07:13:42;11.30;;;9.57;;
27744;SDS011;61387;48.112;8.616;2023-08-20T07:16:08;14.57;;;10.07;;
27744;SDS011;61387;48.112;8.616;2023-08-20T07:18:33;13.45;;;10.52;;
27744;SDS011;61387;48.112;8.616;2023-08-20T07:20:59;16.27;;;9.55;;
27744;SDS011;61387;48.112;8.616;2023-08-20T07:23:25;13.10;;;9.93;;
27744;SDS011;61387;48.112;8.616;2023-08-20T07:25:50;12.63;;;9.70;;
27744;SDS011;61387;48.112;8.616;2023-08-20T07:28:17;11.23;;;9.95;;
27744;SDS011;61387;48.112;8.616;2023-08-20T07:30:51;14.55;;;10.48;;
27744;SDS011;61387;48.112;8.616;2023-08-20T07:33:17;13.10;;;10.80;;
27744;SDS011;61387;48.112;8.616;2023-08-20T07:35:43;12.20;;;9.77;;
27744;SDS011;61387;48.112;8.616;2023-08-20T07:38:09;13.53;;;10.83;;
27744;SDS011;61387;48.112;8.616;2023-08-20T07:40:35;15.07;;;11.17;;
27744;SDS011;61387;48.112;8.616;2023-08-20T07:43:01;11.18;;;9.75;;
27744;SDS011;61387;48.112;8.616;2023-08-20T07:45:27;12.25;;;9.82;;
27744;SDS011;61387;48.112;8.616;2023-08-20T07:47:53;12.57;;;10.80;;
27744;SDS011;61387;48.112;8.616;2023-08-20T07:50:19;13.13;;;10.00;;
27744;SDS011;61387;48.112;8.616;2023-08-20T07:52:45;13.33;;;10.23;;
27744;SDS011;61387;48.112;8.616;2023-08-20T07:55:10;13.05;;;10.10;;
27744;SDS011;61387;48.112;8.616;2023-08-20T07:57:36;11.33;;;9.70;;
27744;SDS011;61387;48.112;8.616;2023-08-20T08:00:02;12.17;;;9.83;;
27744;SDS011;61387;48.112;8.616;2023-08-20T08:02:29;12.70;;;10.15;;
27744;SDS011;61387;48.112;8.616;2023-08-20T08:04:54;11.50;;;8.83;;
27744;SDS011;61387;48.112;8.616;2023-08-20T08:07:20;12.15;;;9.02;;
27744;SDS011;61387;48.112;8.616;2023-08-20T08:09:46;9.20;;;8.30;;
27744;SDS011;61387;48.112;8.616;2023-08-20T08:12:11;11.52;;;8.52;;
27744;SDS011;61387;48.112;8.616;2023-08-20T08:14:37;11.77;;;8.53;;
27744;SDS011;61387;48.112;8.616;2023-08-20T08:17:03;12.93;;;8.83;;
27744;SDS011;61387;48.112;8.616;2023-08-20T08:19:29;12.30;;;9.05;;
27744;SDS011;61387;48.112;8.616;2023-08-20T08:21:55;14.95;;;9.63;;
27744;SDS011;61387;48.112;8.616;2023-08-20T08:24:21;11.98;;;9.20;;
27744;SDS011;61387;48.112;8.616;2023-08-20T08:26:47;10.73;;;9.32;;
27744;SDS011;61387;48.112;8.616;2023-08-20T08:29:12;10.80;;;8.93;;
27744;SDS011;61387;48.112;8.616;2023-08-20T08:31:38;10.88;;;8.77;;
27744;SDS011;61387;48.112;8.616;2023-08-20T08:34:04;11.90;;;8.10;;
27744;SDS011;61387;48.112;8.616;2023-08-20T08:36:30;10.47;;;7.70;;
27744;SDS011;61387;48.112;8.616;2023-08-20T08:38:55;12.57;;;10.03;;
27744;SDS011;61387;48.112;8.616;2023-08-20T08:41:21;14.90;;;8.67;;
27744;SDS011;61387;48.112;8.616;2023-08-20T08:43:50;13.77;;;7.97;;
27744;SDS011;61387;48.112;8.616;2023-08-20T08:46:16;12.60;;;7.87;;
27744;SDS011;61387;48.112;8.616;2023-08-20T08:48:44;11.95;;;7.70;;
27744;SDS011;61387;48.112;8.616;2023-08-20T08:51:11;8.48;;;6.32;;
27744;SDS011;61387;48.112;8.616;2023-08-20T08:53:38;8.45;;;6.70;;
27744;SDS011;61387;48.112;8.616;2023-08-20T08:56:04;11.02;;;7.95;;
27744;SDS011;61387;48.112;8.616;2023-08-20T08:58:32;10.35;;;8.10;;
27744;SDS011;61387;48.112;8.616;2023-08-20T09:00:59;14.35;;;8.38;;
27744;SDS011;61387;48.112;8.616;2023-08-20T09:03:24;10.65;;;7.62;;
27744;SDS011;61387;48.112;8.616;2023-08-20T09:05:55;10.65;;;6.78;;
27744;SDS011;61387;48.112;8.616;2023-08-20T09:08:22;11.52;;;8.65;;
27744;SDS011;61387;48.112;8.616;2023-08-20T09:10:51;13.38;;;8.00;;
27744;SDS011;61387;48.112;8.616;2023-08-20T09:13:25;8.90;;;7.15;;
27744;SDS011;61387;48.112;8.616;2023-08-20T09:16:08;10.73;;;7.35;;
27744;SDS011;61387;48.112;8.616;2023-08-20T09:18:38;11.30;;;8.15;;
27744;SDS011;61387;48.112;8.616;2023-08-20T09:21:08;9.57;;;6.97;;
27744;SDS011;61387;48.112;8.616;2023-08-20T09:23:36;10.10;;;6.60;;
27744;SDS011;61387;48.112;8.616;2023-08-20T09:26:02;10.45;;;6.85;;
27744;SDS011;61387;48.112;8.616;2023-08-20T09:28:29;14.50;;;6.85;;
27744;SDS011;61387;48.112;8.616;2023-08-20T09:31:06;10.30;;;6.70;;
27744;SDS011;61387;48.112;8.616;2023-08-20T09:33:32;12.30;;;6.27;;
27744;SDS011;61387;48.112;8.616;2023-08-20T09:35:58;8.80;;;5.93;;
27744;SDS011;61387;48.112;8.616;2023-08-20T09:38:23;10.63;;;7.30;;
27744;SDS011;61387;48.112;8.616;2023-08-20T09:40:50;8.15;;;6.25;;
27744;SDS011;61387;48.112;8.616;2023-08-20T09:43:17;9.38;;;6.85;;
27744;SDS011;61387;48.112;8.616;2023-08-20T09:45:44;13.62;;;6.57;;
27744;SDS011;61387;48.112;8.616;2023-08-20T09:48:12;13.18;;;7.05;;
27744;SDS011;61387;48.112;8.616;2023-08-20T09:50:46;9.20;;;6.43;;
27744;SDS011;61387;48.112;8.616;2023-08-20T09:53:17;10.32;;;6.70;;
27744;SDS011;61387;48.112;8.616;2023-08-20T09:55:51;10.05;;;6.55;;
27744;SDS011;61387;48.112;8.616;2023-08-20T09:58:17;9.25;;;5.62;;
27744;SDS011;61387;48.112;8.616;2023-08-20T10:00:46;8.77;;;5.82;;
27744;SDS011;61387;48.112;8.616;2023-08-20T10:03:13;9.30;;;5.57;;
27744;SDS011;61387;48.112;8.616;2023-08-20T10:05:39;12.70;;;6.40;;
27744;SDS011;61387;48.112;8.616;2023-08-20T10:08:05;7.37;;;5.20;;
27744;SDS011;61387;48.112;8.616;2023-08-20T10:10:32;10.40;;;6.53;;
27744;SDS011;61387;48.112;8.616;2023-08-20T10:12:59;10.30;;;5.90;;
27744;SDS011;61387;48.112;8.616;2023-08-20T10:15:25;8.73;;;5.40;;
27744;SDS011;61387;48.112;8.616;2023-08-20T10:17:53;7.85;;;5.45;;
27744;SDS011;61387;48.112;8.616;2023-08-20T10:20:19;11.17;;;6.13;;
27744;SDS011;61387;48.112;8.616;2023-08-20T10:22:45;8.57;;;6.30;;
27744;SDS011;61387;48.112;8.616;2023-08-20T10:25:24;8.77;;;5.70;;
27744;SDS011;61387;48.112;8.616;2023-08-20T10:27:51;11.23;;;6.03;;
27744;SDS011;61387;48.112;8.616;2023-08-20T10:30:18;10.07;;;5.82;;
27744;SDS011;61387;48.112;8.616;2023-08-20T10:32:47;7.57;;;5.30;;
27744;SDS011;61387;48.112;8.616;2023-08-20T10:35:17;8.15;;;5.82;;
27744;SDS011;61387;48.112;8.616;2023-08-20T10:40:55;9.38;;;5.70;;
27744;SDS011;61387;48.112;8.616;2023-08-20T10:46:03;11.07;;;5.72;;
27744;SDS011;61387;48.112;8.616;2023-08-20T10:48:30;8.48;;;5.50;;
27744;SDS011;61387;48.112;8.616;2023-08-20T10:51:05;9.60;;;6.18;;
27744;SDS011;61387;48.112;8.616;2023-08-20T10:53:32;10.68;;;5.75;;
27744;SDS011;61387;48.112;8.616;2023-08-20T10:56:06;7.80;;;5.43;;
27744;SDS011;61387;48.112;8.616;2023-08-20T10:58:44;8.82;;;5.87;;
27744;SDS011;61387;48.112;8.616;2023-08-20T11:03:48;9.00;;;5.53;;
27744;SDS011;61387;48.112;8.616;2023-08-20T11:06:14;9.10;;;5.60;;
27744;SDS011;61387;48.112;8.616;2023-08-20T11:08:41;8.73;;;5.30;;
27744;SDS011;61387;48.112;8.616;2023-08-20T11:11:08;8.15;;;5.43;;
27744;SDS011;61387;48.112;8.616;2023-08-20T11:13:34;12.32;;;6.20;;
27744;SDS011;61387;48.112;8.616;2023-08-20T11:16:03;10.65;;;5.80;;
27744;SDS011;61387;48.112;8.616;2023-08-20T11:18:34;9.63;;;6.18;;
27744;SDS011;61387;48.112;8.616;2023-08-20T11:21:00;8.13;;;5.50;;
27744;SDS011;61387;48.112;8.616;2023-08-20T11:23:26;10.85;;;5.47;;
27744;SDS011;61387;48.112;8.616;2023-08-20T11:25:52;8.55;;;5.00;;
27744;SDS011;61387;48.112;8.616;2023-08-20T11:28:18;11.73;;;5.60;;
27744;SDS011;61387;48.112;8.616;2023-08-20T11:30:45;11.07;;;5.20;;
27744;SDS011;61387;48.112;8.616;2023-08-20T11:33:11;8.55;;;5.35;;
27744;SDS011;61387;48.112;8.616;2023-08-20T11:35:37;10.47;;;5.23;;
27744;SDS011;61387;48.112;8.616;2023-08-20T11:38:03;9.83;;;5.70;;
27744;SDS011;61387;48.112;8.616;2023-08-20T11:40:29;12.30;;;5.87;;
27744;SDS011;61387;48.112;8.616;2023-08-20T11:42:55;11.25;;;5.37;;
27744;SDS011;61387;48.112;8.616;2023-08-20T11:45:21;13.00;;;5.57;;
27744;SDS011;61387;48.112;8.616;2023-08-20T11:47:47;11.03;;;5.17;;
27744;SDS011;61387;48.112;8.616;2023-08-20T11:50:13;9.07;;;5.60;;
27744;SDS011;61387;48.112;8.616;2023-08-20T11:52:39;8.23;;;5.43;;
27744;SDS011;61387;48.112;8.616;2023-08-20T11:55:05;13.77;;;5.83;;
27744;SDS011;61387;48.112;8.616;2023-08-20T11:57:31;9.07;;;5.60;;
27744;SDS011;61387;48.112;8.616;2023-08-20T12:00:01;9.60;;;5.80;;
27744;SDS011;61387;48.112;8.616;2023-08-20T12:02:40;7.78;;;5.68;;
27744;SDS011;61387;48.112;8.616;2023-08-20T12:05:07;10.55;;;5.47;;
27744;SDS011;61387;48.112;8.616;2023-08-20T12:07:33;7.87;;;5.68;;
27744;SDS011;61387;48.112;8.616;2023-08-20T12:09:58;9.53;;;5.73;;
27744;SDS011;61387;48.112;8.616;2023-08-20T12:12:43;11.02;;;5.60;;
27744;SDS011;61387;48.112;8.616;2023-08-20T12:15:10;8.98;;;5.57;;
27744;SDS011;61387;48.112;8.616;2023-08-20T12:17:35;7.77;;;5.50;;
27744;SDS011;61387;48.112;8.616;2023-08-20T12:20:01;8.67;;;5.47;;
27744;SDS011;61387;48.112;8.616;2023-08-20T12:22:34;10.52;;;6.12;;
27744;SDS011;61387;48.112;8.616;2023-08-20T12:25:00;9.73;;;5.87;;
27744;SDS011;61387;48.112;8.616;2023-08-20T12:27:26;9.70;;;5.47;;
27744;SDS011;61387;48.112;8.616;2023-08-20T12:29:53;9.38;;;5.22;;
27744;SDS011;61387;48.112;8.616;2023-08-20T12:32:18;11.33;;;6.03;;
27744;SDS011;61387;48.112;8.616;2023-08-20T12:34:44;12.20;;;5.47;;
27744;SDS011;61387;48.112;8.616;2023-08-20T12:37:09;8.50;;;4.87;;
27744;SDS011;61387;48.112;8.616;2023-08-20T12:39:35;11.07;;;6.50;;
27744;SDS011;61387;48.112;8.616;2023-08-20T12:42:00;10.33;;;6.17;;
27744;SDS011;61387;48.112;8.616;2023-08-20T12:44:27;13.40;;;6.00;;
27744;SDS011;61387;48.112;8.616;2023-08-20T12:46:53;11.60;;;6.50;;
27744;SDS011;61387;48.112;8.616;2023-08-20T12:49:18;12.10;;;5.87;;
27744;SDS011;61387;48.112;8.616;2023-08-20T12:51:44;9.88;;;5.82;;
27744;SDS011;61387;48.112;8.616;2023-08-20T12:54:10;13.20;;;5.78;;
27744;SDS011;61387;48.112;8.616;2023-08-20T12:56:36;9.23;;;5.80;;
27744;SDS011;61387;48.112;8.616;2023-08-20T12:59:01;8.63;;;5.47;;
27744;SDS011;61387;48.112;8.616;2023-08-20T13:01:27;11.33;;;5.83;;
27744;SDS011;61387;48.112;8.616;2023-08-20T13:03:53;9.67;;;5.67;;
27744;SDS011;61387;48.112;8.616;2023-08-20T13:06:19;8.27;;;5.82;;
27744;SDS011;61387;48.112;8.616;2023-08-20T13:08:45;10.77;;;5.75;;
27744;SDS011;61387;48.112;8.616;2023-08-20T13:11:12;8.77;;;5.25;;
27744;SDS011;61387;48.112;8.616;2023-08-20T13:13:41;10.80;;;6.00;;
27744;SDS011;61387;48.112;8.616;2023-08-20T13:16:07;10.45;;;5.87;;
27744;SDS011;61387;48.112;8.616;2023-08-20T13:18:33;9.48;;;5.65;;
27744;SDS011;61387;48.112;8.616;2023-08-20T13:20:59;9.33;;;5.10;;
27744;SDS011;61387;48.112;8.616;2023-08-20T13:23:25;11.60;;;5.50;;
27744;SDS011;61387;48.112;8.616;2023-08-20T13:25:51;7.33;;;5.47;;
27744;SDS011;61387;48.112;8.616;2023-08-20T13:28:17;13.13;;;5.80;;
27744;SDS011;61387;48.112;8.616;2023-08-20T13:30:43;8.20;;;5.63;;
27744;SDS011;61387;48.112;8.616;2023-08-20T13:33:08;10.17;;;5.67;;
27744;SDS011;61387;48.112;8.616;2023-08-20T13:35:34;10.40;;;6.43;;
27744;SDS011;61387;48.112;8.616;2023-08-20T13:37:59;9.57;;;5.78;;
27744;SDS011;61387;48.112;8.616;2023-08-20T13:40:25;9.13;;;5.57;;
27744;SDS011;61387;48.112;8.616;2023-08-20T13:42:50;15.97;;;7.37;;
27744;SDS011;61387;48.112;8.616;2023-08-20T13:45:16;10.77;;;5.90;;
27744;SDS011;61387;48.112;8.616;2023-08-20T13:47:42;15.23;;;6.55;;
27744;SDS011;61387;48.112;8.616;2023-08-20T13:50:09;10.38;;;5.37;;
27744;SDS011;61387;48.112;8.616;2023-08-20T13:52:35;9.93;;;5.60;;
27744;SDS011;61387;48.112;8.616;2023-08-20T13:55:00;10.33;;;5.33;;
27744;SDS011;61387;48.112;8.616;2023-08-20T13:57:27;9.70;;;5.47;;
27744;SDS011;61387;48.112;8.616;2023-08-20T13:59:54;11.95;;;5.75;;
27744;SDS011;61387;48.112;8.616;2023-08-20T14:02:20;9.33;;;5.40;;
27744;SDS011;61387;48.112;8.616;2023-08-20T14:04:45;10.40;;;5.60;;
27744;SDS011;61387;48.112;8.616;2023-08-20T14:07:11;10.03;;;5.03;;
27744;SDS011;61387;48.112;8.616;2023-08-20T14:09:36;9.05;;;5.43;;
27744;SDS011;61387;48.112;8.616;2023-08-20T14:12:04;8.57;;;5.07;;
27744;SDS011;61387;48.112;8.616;2023-08-20T14:14:30;9.43;;;5.10;;
27744;SDS011;61387;48.112;8.616;2023-08-20T14:16:56;9.67;;;5.27;;
27744;SDS011;61387;48.112;8.616;2023-08-20T14:19:22;7.95;;;5.10;;
27744;SDS011;61387;48.112;8.616;2023-08-20T14:21:47;9.95;;;5.37;;
27744;SDS011;61387;48.112;8.616;2023-08-20T14:24:13;9.80;;;5.45;;
27744;SDS011;61387;48.112;8.616;2023-08-20T14:26:38;11.10;;;5.37;;
27744;SDS011;61387;48.112;8.616;2023-08-20T14:29:04;10.83;;;5.93;;
27744;SDS011;61387;48.112;8.616;2023-08-20T14:31:30;10.40;;;5.43;;
27744;SDS011;61387;48.112;8.616;2023-08-20T14:33:56;7.67;;;5.30;;
27744;SDS011;61387;48.112;8.616;2023-08-20T14:36:22;10.10;;;5.73;;
27744;SDS011;61387;48.112;8.616;2023-08-20T14:38:47;9.23;;;5.57;;
27744;SDS011;61387;48.112;8.616;2023-08-20T14:41:13;12.03;;;5.93;;
27744;SDS011;61387;48.112;8.616;2023-08-20T14:43:39;9.98;;;5.20;;
27744;SDS011;61387;48.112;8.616;2023-08-20T14:46:06;8.73;;;5.32;;
27744;SDS011;61387;48.112;8.616;2023-08-20T14:48:32;8.37;;;5.33;;